Time;durP1;ratioP1;P1;durP2;ratioP2;P2;SDS_P1;SDS_P2;PMS_P1;PMS_P2;Temp;Humidity;BMP_temperature;BMP_pressure;BME280_temperature;BME280_humidity;BME280_pressure;Samples;Min_cycle;Max_cycle;Signal;HPM_P1;HPM_P2
2022/07/02 00:00:41;;;;;;;2.80;0.70;;;16.10;99.90;;;;;;4999818;28;20556;-46
2022/07/02 00:03:10;;;;;;;2.55;0.32;;;16.10;99.90;;;;;;5008818;28;20116;-45
2022/07/02 00:05:44;;;;;;;3.38;0.70;;;16.10;99.90;;;;;;4998894;28;20377;-45
2022/07/02 00:08:10;;;;;;;2.35;0.68;;;16.10;99.90;;;;;;4999979;28;20053;-45
2022/07/02 00:10:36;;;;;;;2.83;0.70;;;16.10;99.90;;;;;;5000161;28;20041;-45
2022/07/02 00:13:02;;;;;;;1.40;0.60;;;16.00;99.90;;;;;;4999615;28;20109;-44
2022/07/02 00:15:27;;;;;;;3.67;0.80;;;16.00;99.90;;;;;;4997430;28;20040;-46
2022/07/02 00:17:54;;;;;;;3.08;0.68;;;16.00;99.90;;;;;;5001056;28;20038;-46
2022/07/02 00:20:20;;;;;;;2.03;0.60;;;16.00;99.90;;;;;;5009012;28;20193;-45
2022/07/02 00:22:47;;;;;;;2.65;0.55;;;16.00;99.90;;;;;;4997714;28;20048;-44
2022/07/02 00:25:13;;;;;;;3.15;0.65;;;15.90;99.90;;;;;;4997158;28;20049;-44
2022/07/02 00:27:42;;;;;;;2.05;0.50;;;15.90;99.90;;;;;;5007817;28;20049;-44
2022/07/02 00:30:08;;;;;;;2.20;0.50;;;15.90;99.90;;;;;;4996133;28;20037;-46
2022/07/02 00:32:36;;;;;;;1.80;0.40;;;15.90;99.90;;;;;;4999669;28;20111;-44
2022/07/02 00:35:08;;;;;;;2.28;0.60;;;15.90;99.90;;;;;;4996173;28;20187;-45
2022/07/02 00:37:36;;;;;;;1.73;0.45;;;15.80;99.90;;;;;;5001315;28;20045;-44
2022/07/02 00:40:06;;;;;;;2.60;0.70;;;15.80;99.90;;;;;;4996980;28;20319;-48
2022/07/02 00:42:34;;;;;;;2.05;0.40;;;15.80;99.90;;;;;;4999815;28;20184;-45
2022/07/02 00:45:01;;;;;;;2.67;0.47;;;15.80;99.90;;;;;;4997019;28;20486;-47
2022/07/02 00:47:29;;;;;;;2.03;0.40;;;15.70;99.90;;;;;;5008392;28;20081;-44
2022/07/02 00:49:55;;;;;;;3.17;0.50;;;15.70;99.90;;;;;;4997015;28;20073;-45
2022/07/02 00:52:21;;;;;;;1.27;0.40;;;15.70;99.90;;;;;;4997614;28;20145;-44
2022/07/02 00:54:46;;;;;;;1.90;0.40;;;15.70;99.90;;;;;;4998499;28;20298;-45
2022/07/02 00:57:12;;;;;;;2.80;0.57;;;15.70;99.90;;;;;;4998618;28;20060;-45
2022/07/02 00:59:38;;;;;;;1.73;0.40;;;15.60;99.90;;;;;;4998749;28;20041;-44
2022/07/02 01:02:07;;;;;;;0.98;0.30;;;15.60;99.90;;;;;;4997187;28;20124;-46
2022/07/02 01:04:33;;;;;;;1.00;0.30;;;15.60;99.90;;;;;;5007321;28;20051;-44
2022/07/02 01:07:06;;;;;;;2.08;0.40;;;15.60;99.90;;;;;;4996922;28;20103;-44
2022/07/02 01:12:24;;;;;;;2.58;0.40;;;15.60;99.90;;;;;;4998829;28;20045;-44
2022/07/02 01:14:50;;;;;;;2.15;0.47;;;15.60;99.90;;;;;;4997151;28;20218;-48
2022/07/02 01:17:16;;;;;;;1.05;0.40;;;15.60;99.90;;;;;;4995541;28;20132;-46
2022/07/02 01:19:42;;;;;;;1.92;0.50;;;15.50;99.90;;;;;;4998199;28;20535;-47
2022/07/02 01:22:21;;;;;;;3.17;0.40;;;15.50;99.90;;;;;;5009886;28;20033;-45
2022/07/02 01:24:49;;;;;;;4.22;0.50;;;15.50;99.90;;;;;;4996999;28;20042;-46
2022/07/02 01:27:15;;;;;;;1.17;0.40;;;15.40;99.90;;;;;;5006898;28;20108;-45
2022/07/02 01:29:41;;;;;;;1.55;0.40;;;15.40;99.90;;;;;;4996815;28;20041;-45
2022/07/02 01:32:08;;;;;;;2.85;0.60;;;15.40;99.90;;;;;;5008316;28;20103;-45
2022/07/02 01:34:43;;;;;;;1.75;0.32;;;15.40;99.90;;;;;;4999081;28;20037;-45
2022/07/02 01:37:11;;;;;;;2.25;0.43;;;15.40;99.90;;;;;;5006032;28;20034;-46
2022/07/02 01:39:38;;;;;;;2.65;0.50;;;15.40;99.90;;;;;;5007772;28;20416;-46
2022/07/02 01:42:06;;;;;;;3.22;0.40;;;15.40;99.90;;;;;;4995099;28;20049;-45
2022/07/02 01:44:32;;;;;;;2.35;0.40;;;15.40;99.90;;;;;;5006406;28;20117;-47
2022/07/02 01:46:58;;;;;;;1.40;0.35;;;15.30;99.90;;;;;;4997791;28;20570;-46
2022/07/02 01:49:24;;;;;;;3.05;0.40;;;15.30;99.90;;;;;;5008224;28;20137;-45
2022/07/02 01:51:50;;;;;;;2.80;0.32;;;15.30;99.90;;;;;;4996337;28;20053;-45
2022/07/02 01:54:15;;;;;;;2.17;0.40;;;15.30;99.90;;;;;;4996610;28;20212;-44
2022/07/02 01:56:41;;;;;;;2.15;0.40;;;15.20;99.90;;;;;;4999827;28;20519;-45
2022/07/02 01:59:07;;;;;;;2.47;0.40;;;15.20;99.90;;;;;;4995696;28;20051;-45
2022/07/02 02:01:33;;;;;;;2.22;0.40;;;15.20;99.90;;;;;;5008207;28;20052;-46
2022/07/02 02:03:59;;;;;;;2.33;0.55;;;15.20;99.90;;;;;;4997688;28;20049;-45
2022/07/02 02:06:26;;;;;;;3.72;0.60;;;15.20;99.90;;;;;;4997912;28;20038;-45
2022/07/02 02:08:52;;;;;;;2.22;0.50;;;15.20;99.90;;;;;;4994899;28;20042;-45
2022/07/02 02:11:18;;;;;;;1.52;0.40;;;15.20;99.90;;;;;;4994512;28;20040;-45
2022/07/02 02:13:43;;;;;;;3.60;0.45;;;15.10;99.90;;;;;;4993910;28;20326;-44
2022/07/02 02:16:09;;;;;;;3.22;0.43;;;15.10;99.90;;;;;;4998960;28;20038;-45
2022/07/02 02:18:34;;;;;;;1.88;0.40;;;15.10;99.90;;;;;;5006894;28;20046;-45
2022/07/02 02:21:00;;;;;;;3.67;0.57;;;15.10;99.90;;;;;;4998606;28;20575;-45
2022/07/02 02:23:26;;;;;;;4.45;0.50;;;15.10;99.90;;;;;;4994978;28;20059;-45
2022/07/02 02:25:52;;;;;;;1.83;0.47;;;15.10;99.90;;;;;;4998384;28;20048;-47
2022/07/02 02:28:18;;;;;;;3.60;0.47;;;15.10;99.90;;;;;;5007183;28;20048;-46
2022/07/02 02:30:43;;;;;;;1.73;0.40;;;15.00;99.90;;;;;;4990756;28;20527;-45
2022/07/02 02:33:09;;;;;;;2.47;0.60;;;15.00;99.90;;;;;;4997898;28;20041;-45
2022/07/02 02:35:34;;;;;;;2.45;0.60;;;15.00;99.90;;;;;;4989426;28;20037;-46
2022/07/02 02:38:00;;;;;;;2.95;0.32;;;15.00;99.90;;;;;;4996719;28;20055;-45
2022/07/02 02:40:26;;;;;;;1.98;0.60;;;14.90;99.90;;;;;;4999970;28;20319;-45
2022/07/02 02:42:51;;;;;;;4.68;0.60;;;14.90;99.90;;;;;;4999187;28;20038;-47
2022/07/02 02:45:17;;;;;;;1.95;0.57;;;14.90;99.90;;;;;;4997823;28;20512;-45
2022/07/02 02:47:43;;;;;;;3.33;0.50;;;14.90;99.90;;;;;;4990599;28;20049;-47
2022/07/02 02:50:09;;;;;;;1.80;0.50;;;14.90;99.90;;;;;;4990959;28;20074;-45
2022/07/02 02:52:34;;;;;;;0.98;0.40;;;14.90;99.90;;;;;;4998048;28;20046;-45
2022/07/02 02:55:00;;;;;;;3.95;0.50;;;14.80;99.90;;;;;;4980656;28;20049;-44
2022/07/02 02:57:27;;;;;;;3.08;0.50;;;14.80;99.90;;;;;;5001098;28;20053;-46
2022/07/02 02:59:53;;;;;;;2.85;0.50;;;14.80;99.90;;;;;;5002864;28;20492;-44
2022/07/02 03:02:18;;;;;;;1.63;0.40;;;14.80;99.90;;;;;;4982919;28;20112;-46
2022/07/02 03:04:44;;;;;;;2.53;0.50;;;14.70;99.90;;;;;;5001075;28;20503;-45
2022/07/02 03:07:10;;;;;;;1.63;0.50;;;14.80;99.90;;;;;;4998347;28;20085;-45
2022/07/02 03:09:35;;;;;;;1.90;0.40;;;14.70;99.90;;;;;;4996498;28;20040;-45
2022/07/02 03:12:01;;;;;;;1.75;0.40;;;14.70;99.90;;;;;;5010333;28;20041;-45
2022/07/02 03:14:27;;;;;;;2.97;0.60;;;14.70;99.90;;;;;;4997929;28;20038;-44
2022/07/02 03:16:53;;;;;;;2.80;0.40;;;14.60;99.90;;;;;;5000513;28;20552;-45
2022/07/02 03:19:18;;;;;;;4.68;0.65;;;14.60;99.90;;;;;;4998201;28;20618;-44
2022/07/02 03:21:44;;;;;;;3.70;0.60;;;14.60;99.90;;;;;;5000211;28;20041;-44
2022/07/02 03:24:10;;;;;;;3.13;0.52;;;14.60;99.90;;;;;;4993588;28;20470;-44
2022/07/02 03:26:35;;;;;;;4.68;0.55;;;14.60;99.90;;;;;;5001400;28;20495;-45
2022/07/02 03:29:01;;;;;;;2.38;0.60;;;14.60;99.90;;;;;;4999201;28;20033;-44
2022/07/02 03:31:26;;;;;;;2.88;0.55;;;14.60;99.90;;;;;;5001788;28;20092;-44
2022/07/02 03:33:52;;;;;;;1.52;0.43;;;14.60;99.90;;;;;;4993677;28;20365;-46
2022/07/02 03:36:18;;;;;;;1.67;0.40;;;14.60;99.90;;;;;;5008570;28;20253;-45
2022/07/02 03:38:43;;;;;;;1.85;0.40;;;14.60;99.90;;;;;;5013347;28;20281;-45
2022/07/02 03:41:09;;;;;;;4.22;0.60;;;14.60;99.90;;;;;;4989108;28;20157;-45
2022/07/02 03:43:35;;;;;;;2.33;0.38;;;14.60;99.90;;;;;;4997334;28;20038;-45
2022/07/02 03:46:01;;;;;;;2.70;0.43;;;14.60;99.90;;;;;;4996521;28;20053;-45
2022/07/02 03:48:27;;;;;;;3.03;0.40;;;14.50;99.90;;;;;;5013211;28;20478;-45
2022/07/02 03:50:53;;;;;;;2.10;0.43;;;14.50;99.90;;;;;;5008369;28;20212;-46
2022/07/02 03:53:19;;;;;;;3.25;0.50;;;14.50;99.90;;;;;;5001648;28;20058;-45
2022/07/02 03:55:44;;;;;;;3.42;0.47;;;14.60;99.90;;;;;;4998581;28;20046;-45
2022/07/02 03:58:10;;;;;;;1.52;0.38;;;14.50;99.90;;;;;;4998674;28;20057;-44
2022/07/02 04:00:36;;;;;;;3.88;0.40;;;14.50;99.90;;;;;;5000162;28;20053;-46
2022/07/02 04:03:01;;;;;;;4.13;0.45;;;14.50;99.90;;;;;;5000207;28;20038;-47
2022/07/02 04:05:27;;;;;;;3.20;0.63;;;14.60;99.90;;;;;;4998147;28;20400;-45
2022/07/02 04:07:53;;;;;;;2.17;0.40;;;14.50;99.90;;;;;;5014807;28;20538;-47
2022/07/02 04:10:19;;;;;;;2.78;0.40;;;14.50;99.90;;;;;;4999680;28;20038;-45
2022/07/02 04:12:45;;;;;;;2.40;0.50;;;14.60;99.90;;;;;;4996988;28;20521;-45
2022/07/02 04:15:11;;;;;;;3.53;0.60;;;14.60;99.90;;;;;;4997217;28;20412;-45
2022/07/02 04:17:36;;;;;;;4.13;0.50;;;14.50;99.90;;;;;;5008549;28;20300;-44
2022/07/02 04:20:03;;;;;;;3.45;0.40;;;14.60;99.90;;;;;;4999171;28;20041;-47
2022/07/02 04:22:29;;;;;;;3.22;0.50;;;14.60;99.90;;;;;;5000581;28;20053;-46
2022/07/02 04:24:55;;;;;;;2.60;0.52;;;14.60;99.90;;;;;;4998750;28;20037;-44
2022/07/02 04:27:21;;;;;;;3.10;0.50;;;14.60;99.90;;;;;;4993134;28;20045;-46
2022/07/02 04:29:47;;;;;;;2.75;0.40;;;14.50;99.90;;;;;;4990678;28;20053;-45
2022/07/02 04:32:13;;;;;;;2.55;0.50;;;14.60;99.90;;;;;;4997794;28;20099;-46
2022/07/02 04:34:38;;;;;;;2.10;0.50;;;14.60;99.90;;;;;;4993928;28;20242;-45
2022/07/02 04:37:04;;;;;;;4.18;0.65;;;14.70;99.90;;;;;;4991181;28;20524;-47
2022/07/02 04:39:30;;;;;;;3.33;0.63;;;14.70;99.90;;;;;;4991463;28;20464;-45
2022/07/02 04:41:57;;;;;;;2.42;0.60;;;14.70;99.90;;;;;;5008503;28;20071;-45
2022/07/02 04:44:24;;;;;;;5.40;0.63;;;14.70;99.90;;;;;;4999643;28;20037;-45
2022/07/02 04:46:49;;;;;;;2.33;0.50;;;14.80;99.90;;;;;;5013201;28;20130;-45
2022/07/02 04:49:15;;;;;;;3.35;0.68;;;14.80;99.90;;;;;;4998642;28;20132;-44
2022/07/02 04:51:41;;;;;;;3.47;0.60;;;14.80;99.90;;;;;;4996926;28;20050;-45
2022/07/02 04:54:06;;;;;;;4.15;0.80;;;14.90;99.90;;;;;;5007765;28;20064;-44
2022/07/02 04:56:32;;;;;;;3.15;0.43;;;14.90;99.90;;;;;;4997701;28;20321;-44
2022/07/02 04:58:58;;;;;;;2.88;0.80;;;14.90;99.90;;;;;;5009138;28;20117;-46
2022/07/02 05:01:23;;;;;;;3.78;0.70;;;14.90;99.90;;;;;;4996399;28;20431;-46
2022/07/02 05:03:51;;;;;;;3.10;0.40;;;14.90;99.90;;;;;;5007954;28;20440;-46
2022/07/02 05:06:17;;;;;;;3.85;0.55;;;15.00;99.90;;;;;;4998771;28;20305;-46
2022/07/02 05:08:43;;;;;;;4.22;0.70;;;15.00;99.90;;;;;;5006659;28;20052;-45
2022/07/02 05:11:09;;;;;;;3.97;0.60;;;15.00;99.90;;;;;;4996715;28;20041;-46
2022/07/02 05:13:34;;;;;;;4.72;0.77;;;15.00;99.90;;;;;;5006184;28;20387;-45
2022/07/02 05:16:00;;;;;;;4.32;0.82;;;15.00;99.90;;;;;;5006447;28;20057;-44
2022/07/02 05:18:26;;;;;;;3.47;0.90;;;15.10;99.90;;;;;;5007851;28;20042;-46
2022/07/02 05:20:52;;;;;;;3.50;0.80;;;15.10;99.90;;;;;;4962000;28;20521;-46
2022/07/02 05:23:17;;;;;;;2.97;0.70;;;15.20;99.90;;;;;;4980911;28;20041;-45
2022/07/02 05:25:43;;;;;;;3.45;0.82;;;15.20;99.90;;;;;;4989240;28;20458;-44
2022/07/02 05:28:09;;;;;;;3.05;0.60;;;15.50;99.90;;;;;;4991293;28;20411;-46
2022/07/02 05:30:34;;;;;;;3.20;0.60;;;16.00;99.90;;;;;;4996522;28;20052;-45
2022/07/02 05:33:00;;;;;;;3.22;0.68;;;16.80;99.90;;;;;;4998217;28;20067;-47
2022/07/02 05:35:26;;;;;;;2.80;0.65;;;17.50;99.90;;;;;;4993450;28;20048;-45
2022/07/02 05:37:51;;;;;;;3.33;0.60;;;17.80;99.90;;;;;;4995377;28;20637;-46
2022/07/02 05:40:18;;;;;;;2.70;0.60;;;17.80;99.90;;;;;;5007274;28;20080;-44
2022/07/02 05:42:44;;;;;;;3.58;0.60;;;18.10;99.90;;;;;;4998820;28;20099;-45
2022/07/02 05:45:10;;;;;;;2.40;0.45;;;18.50;99.90;;;;;;5006368;28;20439;-47
2022/07/02 05:47:35;;;;;;;3.28;0.52;;;18.80;99.90;;;;;;5001563;28;20030;-45
2022/07/02 05:50:01;;;;;;;3.63;0.50;;;19.00;99.90;;;;;;4990863;28;20052;-48
2022/07/02 05:52:27;;;;;;;3.13;0.75;;;19.00;99.90;;;;;;5001704;28;20141;-47
2022/07/02 05:54:53;;;;;;;3.28;0.70;;;19.00;99.90;;;;;;5008704;28;20053;-47
2022/07/02 05:57:18;;;;;;;3.13;0.90;;;18.90;99.90;;;;;;4999258;28;20267;-45
2022/07/02 05:59:44;;;;;;;4.32;0.60;;;18.80;99.90;;;;;;4995727;28;20475;-48
2022/07/02 06:02:09;;;;;;;3.95;0.95;;;18.70;99.90;;;;;;4996858;28;20199;-46
2022/07/02 06:04:35;;;;;;;3.13;0.50;;;18.60;99.90;;;;;;4994701;28;20128;-46
2022/07/02 06:09:45;;;;;;;3.33;0.80;;;18.50;99.90;;;;;;4997766;28;20491;-45
2022/07/02 06:12:11;;;;;;;4.18;0.82;;;18.50;99.90;;;;;;4995919;28;20046;-46
2022/07/02 06:14:37;;;;;;;3.92;0.65;;;18.40;99.90;;;;;;4997212;28;20306;-46
2022/07/02 06:17:02;;;;;;;4.43;0.70;;;18.40;99.90;;;;;;4996669;28;20467;-45
2022/07/02 06:19:28;;;;;;;3.70;0.90;;;18.40;99.90;;;;;;4996464;28;20048;-46
2022/07/02 06:21:54;;;;;;;4.13;0.90;;;18.30;99.90;;;;;;4994699;28;20558;-45
2022/07/02 06:24:20;;;;;;;3.20;1.00;;;18.30;99.90;;;;;;4994380;28;20320;-46
2022/07/02 06:26:45;;;;;;;4.32;0.82;;;18.40;99.90;;;;;;4995735;28;20034;-45
2022/07/02 06:29:11;;;;;;;3.78;1.10;;;18.40;99.90;;;;;;5005001;28;20170;-45
2022/07/02 06:31:37;;;;;;;3.40;1.00;;;18.40;99.90;;;;;;4999216;28;20779;-45
2022/07/02 06:34:05;;;;;;;2.72;0.80;;;18.40;99.90;;;;;;5000721;28;20054;-46
2022/07/02 06:36:31;;;;;;;4.38;0.95;;;18.40;99.90;;;;;;4998095;28;20037;-45
2022/07/02 06:38:57;;;;;;;3.55;0.73;;;18.40;99.90;;;;;;5017361;28;20458;-45
2022/07/02 06:44:07;;;;;;;4.55;0.70;;;18.50;99.90;;;;;;5005469;28;20049;-46
2022/07/02 06:46:33;;;;;;;2.25;0.88;;;18.50;99.90;;;;;;4999513;28;20030;-46
2022/07/02 06:49:00;;;;;;;4.07;1.23;;;18.50;99.90;;;;;;5000167;28;20285;-45
2022/07/02 06:51:26;;;;;;;4.63;1.00;;;18.60;99.90;;;;;;5000733;28;20127;-44
2022/07/02 06:53:53;;;;;;;3.28;0.85;;;18.60;99.90;;;;;;4999113;28;20049;-46
2022/07/02 06:56:19;;;;;;;4.93;0.70;;;18.70;99.90;;;;;;5008707;28;20192;-44
2022/07/02 06:58:45;;;;;;;4.25;0.90;;;18.70;99.90;;;;;;5000276;28;20045;-46
2022/07/02 07:01:11;;;;;;;3.78;0.68;;;18.80;99.90;;;;;;4999199;28;20045;-45
2022/07/02 07:03:36;;;;;;;4.22;0.70;;;18.80;99.90;;;;;;4999626;28;20744;-45
2022/07/02 07:06:02;;;;;;;8.27;0.75;;;18.90;99.90;;;;;;5001851;28;20056;-45
2022/07/02 07:08:28;;;;;;;3.78;0.90;;;18.90;99.90;;;;;;5009924;28;20049;-44
2022/07/02 07:10:53;;;;;;;3.38;0.55;;;19.00;99.90;;;;;;5000808;28;20431;-45
2022/07/02 07:13:19;;;;;;;4.70;0.73;;;19.00;99.90;;;;;;5000394;28;20080;-45
2022/07/02 07:15:45;;;;;;;3.90;0.70;;;19.10;99.90;;;;;;5010865;28;20064;-44
2022/07/02 07:18:10;;;;;;;3.17;0.70;;;19.10;99.90;;;;;;5023405;28;20519;-46
2022/07/02 07:20:36;;;;;;;4.43;0.85;;;19.20;99.90;;;;;;5018144;28;20505;-44
2022/07/02 07:23:02;;;;;;;2.85;0.60;;;19.30;99.90;;;;;;5032088;28;20056;-45
2022/07/02 07:25:28;;;;;;;3.50;0.70;;;19.30;99.90;;;;;;5018514;28;20307;-46
2022/07/02 07:27:54;;;;;;;1.77;0.40;;;19.30;99.90;;;;;;5017443;28;20044;-45
2022/07/02 07:30:19;;;;;;;4.63;0.57;;;19.50;99.90;;;;;;5028384;28;20124;-46
2022/07/02 07:32:45;;;;;;;3.65;0.35;;;19.50;99.90;;;;;;5007181;28;20129;-44
2022/07/02 07:35:11;;;;;;;3.97;0.43;;;19.60;99.90;;;;;;5006103;28;20339;-47
2022/07/02 07:37:37;;;;;;;3.90;0.50;;;19.60;99.90;;;;;;5023966;28;20041;-46
2022/07/02 07:40:04;;;;;;;3.13;0.30;;;19.70;99.90;;;;;;5016407;28;20041;-44
2022/07/02 07:42:30;;;;;;;1.63;0.40;;;19.70;99.90;;;;;;5028539;28;20055;-46
2022/07/02 07:44:56;;;;;;;5.25;0.50;;;19.80;99.90;;;;;;5044271;28;20045;-46
2022/07/02 07:47:22;;;;;;;3.20;0.38;;;19.90;99.90;;;;;;5043900;28;20040;-44
2022/07/02 07:49:47;;;;;;;4.10;0.55;;;19.90;99.90;;;;;;5041854;28;20550;-45
2022/07/02 07:52:13;;;;;;;2.00;0.30;;;20.00;99.90;;;;;;5023907;28;20658;-44
2022/07/02 07:54:39;;;;;;;4.22;0.40;;;20.10;99.90;;;;;;5040413;28;20440;-45
2022/07/02 07:57:05;;;;;;;3.83;0.40;;;20.10;99.90;;;;;;5024197;28;20163;-46
2022/07/02 07:59:31;;;;;;;3.10;0.35;;;20.20;99.90;;;;;;5041869;28;20178;-45
2022/07/02 08:01:57;;;;;;;4.40;0.30;;;20.30;99.90;;;;;;5040313;28;20108;-45
2022/07/02 08:04:24;;;;;;;2.50;0.40;;;20.30;99.90;;;;;;5041903;28;20049;-44
2022/07/02 08:06:50;;;;;;;3.88;0.35;;;20.40;99.90;;;;;;5040371;28;20033;-44
2022/07/02 08:09:16;;;;;;;2.47;0.32;;;20.50;99.90;;;;;;5041708;28;20095;-44
2022/07/02 08:11:41;;;;;;;3.28;0.50;;;20.50;99.90;;;;;;5040373;28;20052;-46
2022/07/02 08:14:07;;;;;;;1.58;0.32;;;20.60;99.90;;;;;;5041451;28;20045;-43
2022/07/02 08:16:33;;;;;;;2.42;0.30;;;20.60;99.90;;;;;;5040249;28;20391;-42
2022/07/02 08:18:59;;;;;;;3.25;0.30;;;20.70;99.90;;;;;;5041404;28;20087;-43
2022/07/02 08:21:24;;;;;;;2.28;0.20;;;20.80;99.90;;;;;;5041260;28;20041;-42
2022/07/02 08:23:50;;;;;;;2.40;0.25;;;20.90;99.90;;;;;;5040966;28;20067;-42
2022/07/02 08:26:16;;;;;;;1.30;0.20;;;20.90;99.90;;;;;;5041540;28;20137;-44
2022/07/02 08:28:42;;;;;;;1.67;0.20;;;21.00;99.90;;;;;;5023421;28;20052;-45
2022/07/02 08:31:07;;;;;;;6.72;0.30;;;21.10;99.90;;;;;;5022884;28;20453;-43
2022/07/02 08:33:33;;;;;;;2.58;0.22;;;21.20;99.90;;;;;;5040859;28;20052;-44
2022/07/02 08:35:59;;;;;;;2.88;0.20;;;21.20;99.90;;;;;;5040977;28;20041;-43
2022/07/02 08:38:25;;;;;;;1.55;0.20;;;21.30;99.90;;;;;;5040976;28;20266;-46
2022/07/02 08:40:51;;;;;;;3.33;0.30;;;21.40;99.90;;;;;;5040259;28;20040;-49
2022/07/02 08:43:19;;;;;;;1.50;0.20;;;21.40;99.90;;;;;;5023085;28;20579;-45
2022/07/02 08:45:45;;;;;;;1.58;0.10;;;21.50;99.90;;;;;;5039592;28;20045;-45
2022/07/02 08:48:11;;;;;;;1.98;0.20;;;21.60;99.90;;;;;;5040689;28;20059;-45
2022/07/02 08:50:38;;;;;;;1.35;0.10;;;21.70;99.90;;;;;;5040715;28;20047;-45
2022/07/02 08:53:05;;;;;;;1.65;0.10;;;21.70;99.90;;;;;;5039060;28;20446;-45
2022/07/02 08:55:34;;;;;;;3.10;0.20;;;21.80;99.90;;;;;;5039800;28;20063;-46
2022/07/02 08:58:00;;;;;;;0.70;0.15;;;21.90;99.90;;;;;;5040799;28;20037;-45
2022/07/02 09:00:27;;;;;;;2.08;0.25;;;21.90;99.90;;;;;;5041135;28;20037;-45
2022/07/02 09:02:55;;;;;;;1.95;0.32;;;22.00;99.90;;;;;;5040819;28;20041;-45
2022/07/02 09:05:21;;;;;;;1.25;0.10;;;22.00;99.90;;;;;;5040945;28;20478;-45
2022/07/02 09:07:48;;;;;;;1.80;0.10;;;22.10;99.90;;;;;;5039755;28;20041;-44
2022/07/02 09:10:17;;;;;;;1.25;0.10;;;22.20;99.90;;;;;;5041176;28;20236;-44
2022/07/02 09:12:43;;;;;;;1.52;0.20;;;22.30;99.90;;;;;;5039331;28;20663;-45
2022/07/02 09:15:10;;;;;;;1.95;0.20;;;22.30;99.90;;;;;;5039197;28;20051;-45
2022/07/02 09:17:37;;;;;;;1.70;0.13;;;22.40;99.90;;;;;;5040281;28;20040;-45
2022/07/02 09:20:04;;;;;;;1.58;0.10;;;22.50;99.90;;;;;;5022494;28;20041;-44
2022/07/02 09:22:35;;;;;;;0.93;0.10;;;22.50;99.90;;;;;;5040848;28;20037;-45
2022/07/02 09:25:13;;;;;;;1.70;0.10;;;22.60;99.90;;;;;;5022692;28;20037;-46
2022/07/02 09:27:39;;;;;;;1.27;0.10;;;22.70;99.90;;;;;;5038874;28;20098;-44
2022/07/02 09:30:07;;;;;;;2.63;0.10;;;22.70;99.40;;;;;;5038837;28;20056;-45
2022/07/02 09:32:44;;;;;;;1.98;0.10;;;22.80;99.60;;;;;;5039138;28;20494;-44
2022/07/02 09:35:18;;;;;;;1.50;0.00;;;22.80;98.80;;;;;;5038643;28;20155;-46
2022/07/02 09:37:45;;;;;;;1.48;0.10;;;22.90;98.00;;;;;;5038003;28;20578;-44
2022/07/02 09:40:11;;;;;;;0.90;0.10;;;23.00;96.50;;;;;;5038862;28;20041;-47
2022/07/02 09:42:36;;;;;;;2.13;0.10;;;23.00;95.00;;;;;;5038517;28;20040;-44
2022/07/02 09:45:05;;;;;;;0.73;0.10;;;23.00;94.80;;;;;;5040368;28;20390;-43
2022/07/02 09:47:48;;;;;;;0.93;0.10;;;23.10;94.60;;;;;;5038244;28;20048;-44
2022/07/02 09:50:15;;;;;;;1.05;0.10;;;23.20;92.80;;;;;;5039458;28;20266;-44
2022/07/02 09:52:56;;;;;;;1.90;0.10;;;23.20;93.20;;;;;;5039648;28;20056;-48
2022/07/02 09:55:28;;;;;;;1.40;0.10;;;23.30;94.20;;;;;;5039141;28;20069;-45
2022/07/02 09:57:56;;;;;;;1.40;0.25;;;23.40;92.60;;;;;;5038379;28;20048;-46
2022/07/02 10:00:23;;;;;;;0.40;0.10;;;23.40;92.40;;;;;;5039287;28;20347;-43
2022/07/02 10:02:51;;;;;;;1.65;0.10;;;23.50;91.40;;;;;;5038388;28;20515;-44
2022/07/02 10:05:27;;;;;;;2.20;0.10;;;23.50;91.20;;;;;;5042457;28;20283;-43
2022/07/02 10:07:58;;;;;;;0.93;0.10;;;23.60;91.10;;;;;;5046759;28;20067;-44
2022/07/02 10:10:41;;;;;;;0.98;0.10;;;23.70;90.70;;;;;;5046224;28;20484;-45
2022/07/02 10:13:09;;;;;;;1.27;0.10;;;23.70;89.60;;;;;;5046505;28;20542;-43
2022/07/02 10:15:39;;;;;;;1.77;0.10;;;23.80;89.10;;;;;;5045048;28;20410;-43
2022/07/02 10:18:06;;;;;;;0.95;0.10;;;23.90;89.30;;;;;;5046769;28;20110;-44
2022/07/02 10:20:33;;;;;;;0.90;0.15;;;23.90;88.10;;;;;;5044937;28;20029;-43
2022/07/02 10:23:02;;;;;;;1.02;0.10;;;24.00;87.10;;;;;;5046379;28;20052;-43
2022/07/02 10:25:29;;;;;;;1.08;0.00;;;24.00;88.40;;;;;;5044741;28;20045;-43
2022/07/02 10:27:56;;;;;;;0.60;0.10;;;24.10;85.90;;;;;;5046769;28;20041;-45
2022/07/02 10:30:32;;;;;;;1.75;0.10;;;24.20;86.30;;;;;;5048158;28;20056;-45
2022/07/02 10:33:25;;;;;;;1.15;0.10;;;24.30;84.70;;;;;;5051823;28;20044;-43
2022/07/02 10:35:51;;;;;;;0.90;0.00;;;24.30;84.00;;;;;;5052169;28;20406;-43
2022/07/02 10:38:33;;;;;;;1.00;0.10;;;24.40;80.10;;;;;;5053021;28;20253;-43
2022/07/02 10:40:59;;;;;;;2.85;0.10;;;24.40;79.60;;;;;;5051591;28;20107;-43
2022/07/02 10:43:29;;;;;;;1.08;0.10;;;24.50;80.10;;;;;;5053527;28;20044;-43
2022/07/02 10:46:09;;;;;;;0.88;0.10;;;24.50;78.30;;;;;;5053695;28;20049;-45
2022/07/02 10:48:57;;;;;;;0.60;0.10;;;24.60;78.80;;;;;;5050769;28;20091;-44
2022/07/02 10:51:36;;;;;;;0.75;0.10;;;24.70;78.10;;;;;;5047009;28;20050;-45
2022/07/02 10:54:05;;;;;;;0.88;0.00;;;24.70;77.80;;;;;;5045068;28;20167;-45
2022/07/02 10:56:49;;;;;;;0.63;0.10;;;24.80;76.30;;;;;;5046609;28;20095;-44
2022/07/02 10:59:24;;;;;;;1.33;0.10;;;24.90;77.40;;;;;;5045626;28;20049;-44
2022/07/02 11:02:05;;;;;;;1.20;0.10;;;24.90;76.90;;;;;;5046719;28;20335;-44
2022/07/02 11:04:31;;;;;;;1.23;0.10;;;25.00;75.60;;;;;;5044999;28;20072;-46
2022/07/02 11:07:05;;;;;;;1.17;0.10;;;25.00;74.10;;;;;;5046660;28;20087;-45
2022/07/02 11:09:31;;;;;;;0.95;0.10;;;25.00;73.40;;;;;;5045424;28;20135;-43
2022/07/02 11:12:00;;;;;;;1.73;0.10;;;25.10;72.40;;;;;;5044981;28;20052;-45
2022/07/02 11:14:27;;;;;;;2.20;0.10;;;25.10;72.60;;;;;;5046147;28;20056;-44
2022/07/02 11:16:54;;;;;;;1.45;0.10;;;25.20;71.50;;;;;;5022601;28;20420;-44
2022/07/02 11:19:27;;;;;;;0.30;0.05;;;25.20;70.70;;;;;;5001519;28;20233;-45
2022/07/02 11:21:58;;;;;;;1.65;0.10;;;25.30;71.50;;;;;;5002214;28;20053;-44
2022/07/02 11:24:29;;;;;;;0.50;0.00;;;25.30;71.80;;;;;;5000629;28;20131;-44
2022/07/02 11:26:56;;;;;;;2.53;0.10;;;25.40;71.40;;;;;;4998413;28;20053;-45
2022/07/02 11:29:21;;;;;;;1.67;0.10;;;25.40;71.20;;;;;;5007022;28;20144;-45
2022/07/02 11:31:49;;;;;;;0.90;0.10;;;25.50;71.90;;;;;;5001482;28;20049;-44
2022/07/02 11:34:18;;;;;;;1.88;0.08;;;25.60;70.10;;;;;;4999273;28;20041;-45
2022/07/02 11:36:44;;;;;;;1.05;0.10;;;25.70;69.20;;;;;;5004133;28;20736;-46
2022/07/02 11:39:12;;;;;;;1.58;0.10;;;25.70;68.30;;;;;;5000200;28;20123;-46
2022/07/02 11:41:38;;;;;;;0.50;0.10;;;25.80;68.80;;;;;;5006900;28;20575;-44
2022/07/02 11:44:15;;;;;;;1.48;0.10;;;25.80;67.60;;;;;;4998799;28;20582;-43
2022/07/02 11:46:42;;;;;;;0.35;0.10;;;25.90;68.10;;;;;;5009430;28;20535;-44
2022/07/02 11:49:14;;;;;;;1.55;0.10;;;26.00;67.50;;;;;;4993208;28;20057;-46
2022/07/02 11:51:40;;;;;;;1.00;0.10;;;26.10;65.90;;;;;;5005485;28;20049;-45
2022/07/02 11:54:07;;;;;;;0.88;0.10;;;26.20;66.00;;;;;;5000019;28;20099;-45
2022/07/02 11:56:38;;;;;;;1.98;0.20;;;26.20;66.20;;;;;;5000085;28;20256;-43
2022/07/02 11:59:06;;;;;;;1.05;0.20;;;26.30;64.60;;;;;;5003295;28;20139;-44
2022/07/02 12:01:33;;;;;;;2.08;0.20;;;26.40;65.20;;;;;;5008987;28;20414;-45
2022/07/02 12:04:05;;;;;;;2.67;0.60;;;26.50;63.90;;;;;;5001305;28;20041;-44
2022/07/02 12:06:35;;;;;;;2.20;0.47;;;26.50;63.20;;;;;;4997394;28;20604;-44
2022/07/02 12:09:05;;;;;;;6.68;6.05;;;26.60;62.70;;;;;;4995632;28;20578;-45
2022/07/02 12:11:34;;;;;;;2.63;1.65;;;26.60;63.10;;;;;;4998217;28;20515;-44
2022/07/02 12:14:01;;;;;;;3.30;0.85;;;26.70;61.80;;;;;;5009138;28;20038;-45
2022/07/02 12:16:27;;;;;;;1.08;0.40;;;26.70;60.80;;;;;;4998628;28;20266;-44
2022/07/02 12:19:03;;;;;;;2.38;0.30;;;26.80;61.40;;;;;;5006161;28;20050;-45
2022/07/02 12:21:42;;;;;;;2.25;0.30;;;26.80;60.70;;;;;;5007914;28;20488;-45
2022/07/02 12:24:30;;;;;;;2.63;1.15;;;26.80;59.50;;;;;;5012535;28;20258;-45
2022/07/02 12:26:57;;;;;;;4.50;3.15;;;26.80;59.50;;;;;;4991627;28;20049;-45
2022/07/02 12:32:13;;;;;;;5.10;3.30;;;26.90;58.30;;;;;;4996193;28;20058;-44
2022/07/02 12:34:41;;;;;;;4.50;2.60;;;26.90;57.70;;;;;;4997138;28;20268;-45
2022/07/02 12:37:19;;;;;;;9.25;5.75;;;26.90;58.30;;;;;;4994552;28;20220;-44
2022/07/02 12:39:45;;;;;;;7.22;5.13;;;26.90;58.40;;;;;;5007355;28;20411;-44
2022/07/02 12:42:20;;;;;;;7.47;4.97;;;26.90;57.10;;;;;;5000632;28;20412;-47
2022/07/02 12:45:03;;;;;;;3.85;3.38;;;26.90;57.50;;;;;;4995877;28;20096;-45
2022/07/02 12:47:38;;;;;;;2.58;1.40;;;26.90;57.80;;;;;;4979964;28;20647;-45
2022/07/02 12:50:10;;;;;;;3.88;1.40;;;26.90;56.60;;;;;;5002334;28;20041;-44
2022/07/02 12:52:44;;;;;;;1.20;0.50;;;26.90;56.80;;;;;;4994837;28;20304;-45
2022/07/02 12:55:32;;;;;;;1.25;0.40;;;26.90;57.20;;;;;;4994069;28;20099;-45
2022/07/02 12:58:02;;;;;;;1.77;0.40;;;26.90;56.70;;;;;;4993177;28;20042;-45
2022/07/02 13:00:30;;;;;;;2.13;0.40;;;26.90;56.60;;;;;;4999208;28;20042;-46